NCAR-RAP Real-Time Weather Data

Output produced by METARs form (05 December 2019  15:08 UTC)
found at http://weather.rap.ucar.edu/surface/
 
Conditions at: KPZQ observed 05 December 2019  14:55 UTC
Temperature: -1.3°C (30°F)
Dewpoint: -6.7°C (20°F) [RH = 67%]
Pressure (altimeter): 29.93 inches Hg (1013.6 mb)
Winds: from the NW (320 degrees) at 10 MPH (9 knots; 4.7 m/s)
gusting to 18 MPH (16 knots; 8.3 m/s)
Visibility: 10 or more miles (16+ km)
Ceiling: 2700 feet AGL
Clouds: broken clouds at 2700 feet AGL
overcast cloud deck at 3500 feet AGL
Present Weather: automated observation with no human augmentation;
there may or may not be significant weather present at this time
KPZQ 051455Z AUTO 32009G16KT 290V350 10SM BKN027 OVC035 M01/M07 A2993 RMK AO2 T10131067

Conditions at: KPZQ observed 05 December 2019  14:35 UTC
Temperature: -1.5°C (29°F)
Dewpoint: -6.3°C (21°F) [RH = 70%]
Pressure (altimeter): 29.93 inches Hg (1013.6 mb)
Winds: from the NW (320 degrees) at 12 MPH (10 knots; 5.2 m/s)
gusting to 22 MPH (19 knots; 9.9 m/s)
Visibility: 10 or more miles (16+ km)
Ceiling: 3500 feet AGL
Clouds: scattered clouds at 2700 feet AGL
overcast cloud deck at 3500 feet AGL
Present Weather: automated observation with no human augmentation;
there may or may not be significant weather present at this time
KPZQ 051435Z AUTO 32010G19KT 10SM SCT027 OVC035 M01/M06 A2993 RMK AO2 T10151063

Conditions at: KPZQ observed 05 December 2019  14:16 UTC
Temperature: -2.0°C (28°F)
Dewpoint: -5.8°C (22°F) [RH = 75%]
Pressure (altimeter): 29.93 inches Hg (1013.6 mb)
Winds: from the WNW (290 degrees) at 9 MPH (8 knots; 4.2 m/s)
gusting to 17 MPH (15 knots; 7.8 m/s)
Visibility: 10 or more miles (16+ km)
Ceiling: 3100 feet AGL
Clouds: scattered clouds at 2400 feet AGL
broken clouds at 3100 feet AGL
overcast cloud deck at 3700 feet AGL
Present Weather: automated observation with no human augmentation;
there may or may not be significant weather present at this time
KPZQ 051416Z AUTO 29008G15KT 10SM SCT024 BKN031 OVC037 M02/M06 A2993 RMK AO2 T10201058

Conditions at: KPZQ observed 05 December 2019  14:15 UTC
Temperature: -2.0°C (28°F)
Dewpoint: -5.8°C (22°F) [RH = 75%]
Pressure (altimeter): 29.93 inches Hg (1013.6 mb)
Winds: from the WNW (290 degrees) at 10 MPH (9 knots; 4.7 m/s)
gusting to 17 MPH (15 knots; 7.8 m/s)
Visibility: 10 or more miles (16+ km)
Ceiling: 3100 feet AGL
Clouds: scattered clouds at 2400 feet AGL
broken clouds at 3100 feet AGL
overcast cloud deck at 3700 feet AGL
Present Weather: automated observation with no human augmentation;
there may or may not be significant weather present at this time
KPZQ 051415Z AUTO 29009G15KT 10SM SCT024 BKN031 OVC037 M02/M06 A2993 RMK AO2 T10201058

Conditions at: KPZQ observed 05 December 2019  13:56 UTC
Temperature: -2.0°C (28°F)
Dewpoint: -6.6°C (20°F) [RH = 71%]
Pressure (altimeter): 29.92 inches Hg (1013.3 mb)
Winds: from the WNW (300 degrees) at 13 MPH (11 knots; 5.7 m/s)
gusting to 18 MPH (16 knots; 8.3 m/s)
Visibility: 7 miles (11 km)
Ceiling: 2600 feet AGL
Clouds: overcast cloud deck at 2600 feet AGL
Present Weather: -SN  (light snow)
KPZQ 051356Z AUTO 30011G16KT 7SM -SN OVC026 M02/M07 A2992 RMK AO2 T10201066

Conditions at: KPZQ observed 05 December 2019  13:55 UTC
Temperature: -2.0°C (28°F)
Dewpoint: -6.6°C (20°F) [RH = 71%]
Pressure (altimeter): 29.91 inches Hg (1013.0 mb)
Winds: from the WNW (300 degrees) at 12 MPH (10 knots; 5.2 m/s)
gusting to 20 MPH (17 knots; 8.8 m/s)
Visibility: 7 miles (11 km)
Ceiling: 2600 feet AGL
Clouds: overcast cloud deck at 2600 feet AGL
Present Weather: -SN  (light snow)
KPZQ 051355Z AUTO 30010G17KT 7SM -SN OVC026 M02/M07 A2991 RMK AO2 T10201066

Conditions at: KPZQ observed 05 December 2019  13:36 UTC
Temperature: -1.8°C (29°F)
Dewpoint: -6.8°C (20°F) [RH = 69%]
Pressure (altimeter): 29.91 inches Hg (1013.0 mb)
Winds: from the WNW (300 degrees) at 12 MPH (10 knots; 5.2 m/s)
gusting to 16 MPH (14 knots; 7.3 m/s)
Visibility: 10 or more miles (16+ km)
Ceiling: 2800 feet AGL
Clouds: broken clouds at 2800 feet AGL
broken clouds at 3300 feet AGL
overcast cloud deck at 4500 feet AGL
Present Weather: -SN  (light snow)
KPZQ 051336Z AUTO 30010G14KT 10SM -SN BKN028 BKN033 OVC045 M02/M07 A2991 RMK AO2 T10181068

Conditions at: KPZQ observed 05 December 2019  13:35 UTC
Temperature: -1.8°C (29°F)
Dewpoint: -6.8°C (20°F) [RH = 69%]
Pressure (altimeter): 29.91 inches Hg (1013.0 mb)
Winds: from the NW (310 degrees) at 12 MPH (10 knots; 5.2 m/s)
gusting to 17 MPH (15 knots; 7.8 m/s)
Visibility: 10 or more miles (16+ km)
Ceiling: 2800 feet AGL
Clouds: broken clouds at 2800 feet AGL
broken clouds at 3300 feet AGL
overcast cloud deck at 4500 feet AGL
Present Weather: -SN  (light snow)
KPZQ 051335Z AUTO 31010G15KT 10SM -SN BKN028 BKN033 OVC045 M02/M07 A2991 RMK AO2 T10181068

Conditions at: KPZQ observed 05 December 2019  13:16 UTC
Temperature: -2.0°C (28°F)
Dewpoint: -6.9°C (20°F) [RH = 69%]
Pressure (altimeter): 29.90 inches Hg (1012.6 mb)
Winds: from the WNW (300 degrees) at 12 MPH (10 knots; 5.2 m/s)
gusting to 18 MPH (16 knots; 8.3 m/s)
Visibility: 10 or more miles (16+ km)
Ceiling: 4700 feet AGL
Clouds: scattered clouds at 3000 feet AGL
scattered clouds at 3900 feet AGL
overcast cloud deck at 4700 feet AGL
Present Weather: automated observation with no human augmentation;
there may or may not be significant weather present at this time
KPZQ 051316Z AUTO 30010G16KT 10SM SCT030 SCT039 OVC047 M02/M07 A2990 RMK AO2 T10201069

Conditions at: KPZQ observed 05 December 2019  13:15 UTC
Temperature: -2.0°C (28°F)
Dewpoint: -7.0°C (19°F) [RH = 69%]
Pressure (altimeter): 29.90 inches Hg (1012.6 mb)
Winds: from the WNW (300 degrees) at 12 MPH (10 knots; 5.2 m/s)
gusting to 18 MPH (16 knots; 8.3 m/s)
Visibility: 10 or more miles (16+ km)
Ceiling: 4700 feet AGL
Clouds: scattered clouds at 3000 feet AGL
scattered clouds at 3900 feet AGL
overcast cloud deck at 4700 feet AGL
Present Weather: automated observation with no human augmentation;
there may or may not be significant weather present at this time
KPZQ 051315Z AUTO 30010G16KT 10SM SCT030 SCT039 OVC047 M02/M07 A2990 RMK AO2 T10201070

Conditions at: KPZQ observed 05 December 2019  12:56 UTC
Temperature: -2.0°C (28°F)
Dewpoint: -7.0°C (19°F) [RH = 69%]
Pressure (altimeter): 29.88 inches Hg (1011.9 mb)
Winds: from the NW (310 degrees) at 14 MPH (12 knots; 6.2 m/s)
gusting to 23 MPH (20 knots; 10.4 m/s)
Visibility: 10 or more miles (16+ km)
Ceiling: 3000 feet AGL
Clouds: overcast cloud deck at 3000 feet AGL
Present Weather: automated observation with no human augmentation;
there may or may not be significant weather present at this time
KPZQ 051256Z AUTO 31012G20KT 10SM OVC030 M02/M07 A2988 RMK AO2 T10201070

Conditions at: KPZQ observed 05 December 2019  12:55 UTC
Temperature: -2.0°C (28°F)
Dewpoint: -7.0°C (19°F) [RH = 69%]
Pressure (altimeter): 29.88 inches Hg (1011.9 mb)
Winds: from the NW (310 degrees) at 14 MPH (12 knots; 6.2 m/s)
gusting to 23 MPH (20 knots; 10.4 m/s)
Visibility: 10 or more miles (16+ km)
Ceiling: 3000 feet AGL
Clouds: overcast cloud deck at 3000 feet AGL
Present Weather: automated observation with no human augmentation;
there may or may not be significant weather present at this time
KPZQ 051255Z AUTO 31012G20KT 10SM OVC030 M02/M07 A2988 RMK AO2 T10201070

Conditions at: KPZQ observed 05 December 2019  12:36 UTC
Temperature: -2.0°C (28°F)
Dewpoint: -7.2°C (19°F) [RH = 68%]
Pressure (altimeter): 29.88 inches Hg (1011.9 mb)
Winds: from the WNW (300 degrees) at 12 MPH (10 knots; 5.2 m/s)
gusting to 25 MPH (22 knots; 11.4 m/s)
Visibility: 10 or more miles (16+ km)
Ceiling: 2800 feet AGL
Clouds: overcast cloud deck at 2800 feet AGL
Present Weather: automated observation with no human augmentation;
there may or may not be significant weather present at this time
KPZQ 051236Z AUTO 30010G22KT 10SM OVC028 M02/M07 A2988 RMK AO2 T10201072

Conditions at: KPZQ observed 05 December 2019  12:35 UTC
Temperature: -2.0°C (28°F)
Dewpoint: -7.2°C (19°F) [RH = 68%]
Pressure (altimeter): 29.88 inches Hg (1011.9 mb)
Winds: from the WNW (300 degrees) at 13 MPH (11 knots; 5.7 m/s)
gusting to 25 MPH (22 knots; 11.4 m/s)
Visibility: 10 or more miles (16+ km)
Ceiling: 2800 feet AGL
Clouds: overcast cloud deck at 2800 feet AGL
Present Weather: automated observation with no human augmentation;
there may or may not be significant weather present at this time
KPZQ 051235Z AUTO 30011G22KT 10SM OVC028 M02/M07 A2988 RMK AO2 T10201072

Conditions at: KPZQ observed 05 December 2019  12:16 UTC
Temperature: -2.1°C (28°F)
Dewpoint: -7.0°C (19°F) [RH = 69%]
Pressure (altimeter): 29.87 inches Hg (1011.6 mb)
Winds: from the WNW (300 degrees) at 10 MPH (9 knots; 4.7 m/s)
gusting to 20 MPH (17 knots; 8.8 m/s)
Visibility: 10 or more miles (16+ km)
Ceiling: 2600 feet AGL
Clouds: overcast cloud deck at 2600 feet AGL
Present Weather: automated observation with no human augmentation;
there may or may not be significant weather present at this time
KPZQ 051216Z AUTO 30009G17KT 10SM OVC026 M02/M07 A2987 RMK AO2 T10211070

Conditions at: KPZQ observed 05 December 2019  12:15 UTC
Temperature: -2.2°C (28°F)
Dewpoint: -7.1°C (19°F) [RH = 69%]
Pressure (altimeter): 29.87 inches Hg (1011.6 mb)
Winds: from the WNW (300 degrees) at 13 MPH (11 knots; 5.7 m/s)
gusting to 20 MPH (17 knots; 8.8 m/s)
Visibility: 10 or more miles (16+ km)
Ceiling: 2600 feet AGL
Clouds: overcast cloud deck at 2600 feet AGL
Present Weather: automated observation with no human augmentation;
there may or may not be significant weather present at this time
KPZQ 051215Z AUTO 30011G17KT 10SM OVC026 M02/M07 A2987 RMK AO2 T10221071

Conditions at: KPZQ observed 05 December 2019  11:55 UTC
Temperature: -2.3°C (28°F)
Dewpoint: -7.0°C (19°F) [RH = 70%]
Pressure (altimeter): 29.86 inches Hg (1011.3 mb)
Winds: from the WNW (290 degrees) at 12 MPH (10 knots; 5.2 m/s)
gusting to 18 MPH (16 knots; 8.3 m/s)
Visibility: 10 or more miles (16+ km)
Ceiling: 2600 feet AGL
Clouds: overcast cloud deck at 2600 feet AGL
Present Weather: automated observation with no human augmentation;
there may or may not be significant weather present at this time
KPZQ 051155Z AUTO 29010G16KT 10SM OVC026 M02/M07 A2986 RMK AO2 T10231070 11013 21025

Conditions at: KPZQ observed 05 December 2019  11:35 UTC
Temperature: -2.2°C (28°F)
Dewpoint: -7.0°C (19°F) [RH = 70%]
Pressure (altimeter): 29.85 inches Hg (1010.9 mb)
Winds: from the WNW (290 degrees) at 13 MPH (11 knots; 5.7 m/s)
gusting to 22 MPH (19 knots; 9.9 m/s)
Visibility: 10 or more miles (16+ km)
Ceiling: 2600 feet AGL
Clouds: overcast cloud deck at 2600 feet AGL
Present Weather: automated observation with no human augmentation;
there may or may not be significant weather present at this time
KPZQ 051135Z AUTO 29011G19KT 10SM OVC026 M02/M07 A2985 RMK AO2 T10221070

Conditions at: KPZQ observed 05 December 2019  11:15 UTC
Temperature: -2.2°C (28°F)
Dewpoint: -7.2°C (19°F) [RH = 69%]
Pressure (altimeter): 29.84 inches Hg (1010.6 mb)
Winds: from the WNW (290 degrees) at 15 MPH (13 knots; 6.8 m/s)
gusting to 21 MPH (18 knots; 9.4 m/s)
Visibility: 10 or more miles (16+ km)
Ceiling: 2600 feet AGL
Clouds: overcast cloud deck at 2600 feet AGL
Present Weather: automated observation with no human augmentation;
there may or may not be significant weather present at this time
KPZQ 051115Z AUTO 29013G18KT 250V320 10SM OVC026 M02/M07 A2984 RMK AO2 T10221072

Conditions at: KPZQ observed 05 December 2019  10:56 UTC
Temperature: -2.3°C (28°F)
Dewpoint: -7.0°C (19°F) [RH = 70%]
Pressure (altimeter): 29.83 inches Hg (1010.2 mb)
Winds: from the WNW (300 degrees) at 10 MPH (9 knots; 4.7 m/s)
gusting to 17 MPH (15 knots; 7.8 m/s)
Visibility: 10 or more miles (16+ km)
Ceiling: 2400 feet AGL
Clouds: overcast cloud deck at 2400 feet AGL
Present Weather: automated observation with no human augmentation;
there may or may not be significant weather present at this time
KPZQ 051056Z AUTO 30009G15KT 10SM OVC024 M02/M07 A2983 RMK AO2 T10231070

Conditions at: KPZQ observed 05 December 2019  10:55 UTC
Temperature: -2.3°C (28°F)
Dewpoint: -7.0°C (19°F) [RH = 70%]
Pressure (altimeter): 29.83 inches Hg (1010.2 mb)
Winds: from the WNW (300 degrees) at 13 MPH (11 knots; 5.7 m/s)
gusting to 17 MPH (15 knots; 7.8 m/s)
Visibility: 10 or more miles (16+ km)
Ceiling: 2400 feet AGL
Clouds: overcast cloud deck at 2400 feet AGL
Present Weather: automated observation with no human augmentation;
there may or may not be significant weather present at this time
KPZQ 051055Z AUTO 30011G15KT 10SM OVC024 M02/M07 A2983 RMK AO2 T10231070

Conditions at: KPZQ observed 05 December 2019  10:35 UTC
Temperature: -2.3°C (28°F)
Dewpoint: -6.9°C (20°F) [RH = 71%]
Pressure (altimeter): 29.82 inches Hg (1009.9 mb)
Winds: from the WNW (300 degrees) at 13 MPH (11 knots; 5.7 m/s)
gusting to 20 MPH (17 knots; 8.8 m/s)
Visibility: 10 or more miles (16+ km)
Ceiling: 2400 feet AGL
Clouds: overcast cloud deck at 2400 feet AGL
Present Weather: automated observation with no human augmentation;
there may or may not be significant weather present at this time
KPZQ 051035Z AUTO 30011G17KT 10SM OVC024 M02/M07 A2982 RMK AO2 T10231069

Conditions at: KPZQ observed 05 December 2019  10:15 UTC
Temperature: -2.5°C (28°F)
Dewpoint: -7.0°C (19°F) [RH = 71%]
Pressure (altimeter): 29.81 inches Hg (1009.6 mb)
Winds: from the WNW (300 degrees) at 13 MPH (11 knots; 5.7 m/s)
gusting to 23 MPH (20 knots; 10.4 m/s)
Visibility: 10 or more miles (16+ km)
Ceiling: 2400 feet AGL
Clouds: overcast cloud deck at 2400 feet AGL
Present Weather: automated observation with no human augmentation;
there may or may not be significant weather present at this time
KPZQ 051015Z AUTO 30011G20KT 10SM OVC024 M02/M07 A2981 RMK AO2 T10251070

Conditions at: KPZQ observed 05 December 2019  09:55 UTC
Temperature: -2.5°C (28°F)
Dewpoint: -7.0°C (19°F) [RH = 71%]
Pressure (altimeter): 29.81 inches Hg (1009.6 mb)
Winds: from the WNW (290 degrees) at 15 MPH (13 knots; 6.8 m/s)
gusting to 22 MPH (19 knots; 9.9 m/s)
Visibility: 10 or more miles (16+ km)
Ceiling: 2400 feet AGL
Clouds: overcast cloud deck at 2400 feet AGL
Present Weather: automated observation with no human augmentation;
there may or may not be significant weather present at this time
KPZQ 050955Z AUTO 29013G19KT 10SM OVC024 M02/M07 A2981 RMK AO2 T10251070

Conditions at: KPZQ observed 05 December 2019  09:36 UTC
Temperature: -2.4°C (28°F)
Dewpoint: -7.0°C (19°F) [RH = 71%]
Pressure (altimeter): 29.80 inches Hg (1009.2 mb)
Winds: from the WNW (290 degrees) at 17 MPH (15 knots; 7.8 m/s)
gusting to 26 MPH (23 knots; 12.0 m/s)
Visibility: 10 or more miles (16+ km)
Ceiling: 2400 feet AGL
Clouds: overcast cloud deck at 2400 feet AGL
Present Weather: automated observation with no human augmentation;
there may or may not be significant weather present at this time
KPZQ 050936Z AUTO 29015G23KT 10SM OVC024 M02/M07 A2980 RMK AO2 T10241070

Conditions at: KPZQ observed 05 December 2019  09:35 UTC
Temperature: -2.4°C (28°F)
Dewpoint: -7.0°C (19°F) [RH = 71%]
Pressure (altimeter): 29.80 inches Hg (1009.2 mb)
Winds: from the WNW (290 degrees) at 18 MPH (16 knots; 8.3 m/s)
gusting to 26 MPH (23 knots; 12.0 m/s)
Visibility: 10 or more miles (16+ km)
Ceiling: 2400 feet AGL
Clouds: overcast cloud deck at 2400 feet AGL
Present Weather: automated observation with no human augmentation;
there may or may not be significant weather present at this time
KPZQ 050935Z AUTO 29016G23KT 10SM OVC024 M02/M07 A2980 RMK AO2 T10241070

Conditions at: KPZQ observed 05 December 2019  09:16 UTC
Temperature: -2.1°C (28°F)
Dewpoint: -6.6°C (20°F) [RH = 71%]
Pressure (altimeter): 29.80 inches Hg (1009.2 mb)
Winds: from the WNW (290 degrees) at 15 MPH (13 knots; 6.8 m/s)
gusting to 24 MPH (21 knots; 10.9 m/s)
Visibility: 10 or more miles (16+ km)
Ceiling: 2400 feet AGL
Clouds: overcast cloud deck at 2400 feet AGL
Present Weather: automated observation with no human augmentation;
there may or may not be significant weather present at this time
KPZQ 050916Z AUTO 29013G21KT 10SM OVC024 M02/M07 A2980 RMK AO2 T10211066

Conditions at: KPZQ observed 05 December 2019  09:15 UTC
Temperature: -2.1°C (28°F)
Dewpoint: -6.6°C (20°F) [RH = 71%]
Pressure (altimeter): 29.80 inches Hg (1009.2 mb)
Winds: from the WNW (300 degrees) at 16 MPH (14 knots; 7.3 m/s)
gusting to 24 MPH (21 knots; 10.9 m/s)
Visibility: 10 or more miles (16+ km)
Ceiling: 2400 feet AGL
Clouds: overcast cloud deck at 2400 feet AGL
Present Weather: automated observation with no human augmentation;
there may or may not be significant weather present at this time
KPZQ 050915Z AUTO 30014G21KT 10SM OVC024 M02/M07 A2980 RMK AO2 T10211066

Conditions at: KPZQ observed 05 December 2019  08:55 UTC
Temperature: -2.0°C (28°F)
Dewpoint: -6.3°C (21°F) [RH = 72%]
Pressure (altimeter): 29.79 inches Hg (1008.9 mb)
Winds: from the WNW (290 degrees) at 15 MPH (13 knots; 6.8 m/s)
gusting to 25 MPH (22 knots; 11.4 m/s)
Visibility: 10 or more miles (16+ km)
Ceiling: 2200 feet AGL
Clouds: overcast cloud deck at 2200 feet AGL
Present Weather: automated observation with no human augmentation;
there may or may not be significant weather present at this time
KPZQ 050855Z AUTO 29013G22KT 10SM OVC022 M02/M06 A2979 RMK AO2 T10201063

Conditions at: KPZQ observed 05 December 2019  08:35 UTC
Temperature: -1.9°C (29°F)
Dewpoint: -6.0°C (21°F) [RH = 73%]
Pressure (altimeter): 29.78 inches Hg (1008.5 mb)
Winds: from the WNW (290 degrees) at 13 MPH (11 knots; 5.7 m/s)
gusting to 24 MPH (21 knots; 10.9 m/s)
Visibility: 10 or more miles (16+ km)
Ceiling: 2400 feet AGL
Clouds: overcast cloud deck at 2400 feet AGL
Present Weather: automated observation with no human augmentation;
there may or may not be significant weather present at this time
KPZQ 050835Z AUTO 29011G21KT 10SM OVC024 M02/M06 A2978 RMK AO2 T10191060

Conditions at: KPZQ observed 05 December 2019  08:16 UTC
Temperature: -1.7°C (29°F)
Dewpoint: -5.8°C (22°F) [RH = 74%]
Pressure (altimeter): 29.77 inches Hg (1008.2 mb)
Winds: from the WNW (290 degrees) at 12 MPH (10 knots; 5.2 m/s)
gusting to 20 MPH (17 knots; 8.8 m/s)
Visibility: 10 or more miles (16+ km)
Ceiling: 2400 feet AGL
Clouds: overcast cloud deck at 2400 feet AGL
Present Weather: automated observation with no human augmentation;
there may or may not be significant weather present at this time
KPZQ 050816Z AUTO 29010G17KT 10SM OVC024 M02/M06 A2977 RMK AO2 T10171058

Conditions at: KPZQ observed 05 December 2019  08:15 UTC
Temperature: -1.7°C (29°F)
Dewpoint: -5.8°C (22°F) [RH = 74%]
Pressure (altimeter): 29.77 inches Hg (1008.2 mb)
Winds: from the WNW (300 degrees) at 12 MPH (10 knots; 5.2 m/s)
gusting to 20 MPH (17 knots; 8.8 m/s)
Visibility: 10 or more miles (16+ km)
Ceiling: 2400 feet AGL
Clouds: overcast cloud deck at 2400 feet AGL
Present Weather: automated observation with no human augmentation;
there may or may not be significant weather present at this time
KPZQ 050815Z AUTO 30010G17KT 10SM OVC024 M02/M06 A2977 RMK AO2 T10171058

Conditions at: KPZQ observed 05 December 2019  07:56 UTC
Temperature: -1.7°C (29°F)
Dewpoint: -5.8°C (22°F) [RH = 74%]
Pressure (altimeter): 29.76 inches Hg (1007.9 mb)
Winds: from the WNW (290 degrees) at 13 MPH (11 knots; 5.7 m/s)
gusting to 23 MPH (20 knots; 10.4 m/s)
Visibility: 10 or more miles (16+ km)
Ceiling: 2400 feet AGL
Clouds: broken clouds at 2400 feet AGL
overcast cloud deck at 3000 feet AGL
Present Weather: automated observation with no human augmentation;
there may or may not be significant weather present at this time
KPZQ 050756Z AUTO 29011G20KT 10SM BKN024 OVC030 M02/M06 A2976 RMK AO2 T10171058

Conditions at: KPZQ observed 05 December 2019  07:55 UTC
Temperature: -1.7°C (29°F)
Dewpoint: -5.8°C (22°F) [RH = 74%]
Pressure (altimeter): 29.76 inches Hg (1007.9 mb)
Winds: from the WNW (290 degrees) at 14 MPH (12 knots; 6.2 m/s)
gusting to 23 MPH (20 knots; 10.4 m/s)
Visibility: 10 or more miles (16+ km)
Ceiling: 2400 feet AGL
Clouds: broken clouds at 2400 feet AGL
overcast cloud deck at 3000 feet AGL
Present Weather: automated observation with no human augmentation;
there may or may not be significant weather present at this time
KPZQ 050755Z AUTO 29012G20KT 10SM BKN024 OVC030 M02/M06 A2976 RMK AO2 T10171058

Conditions at: KPZQ observed 05 December 2019  07:36 UTC
Temperature: -1.6°C (29°F)
Dewpoint: -5.7°C (22°F) [RH = 74%]
Pressure (altimeter): 29.75 inches Hg (1007.5 mb)
Winds: from the WNW (290 degrees) at 13 MPH (11 knots; 5.7 m/s)
gusting to 21 MPH (18 knots; 9.4 m/s)
Visibility: 10 or more miles (16+ km)
Ceiling: 2400 feet AGL
Clouds: overcast cloud deck at 2400 feet AGL
Present Weather: automated observation with no human augmentation;
there may or may not be significant weather present at this time
KPZQ 050736Z AUTO 29011G18KT 10SM OVC024 M02/M06 A2975 RMK AO2 T10161057

Conditions at: KPZQ observed 05 December 2019  07:35 UTC
Temperature: -1.6°C (29°F)
Dewpoint: -5.7°C (22°F) [RH = 74%]
Pressure (altimeter): 29.75 inches Hg (1007.5 mb)
Winds: from the WNW (290 degrees) at 14 MPH (12 knots; 6.2 m/s)
gusting to 23 MPH (20 knots; 10.4 m/s)
Visibility: 10 or more miles (16+ km)
Ceiling: 2400 feet AGL
Clouds: overcast cloud deck at 2400 feet AGL
Present Weather: automated observation with no human augmentation;
there may or may not be significant weather present at this time
KPZQ 050735Z AUTO 29012G20KT 10SM OVC024 M02/M06 A2975 RMK AO2 T10161057

Conditions at: KPZQ observed 05 December 2019  07:15 UTC
Temperature: -1.6°C (29°F)
Dewpoint: -5.8°C (22°F) [RH = 73%]
Pressure (altimeter): 29.74 inches Hg (1007.2 mb)
Winds: from the WNW (290 degrees) at 15 MPH (13 knots; 6.8 m/s)
gusting to 21 MPH (18 knots; 9.4 m/s)
Visibility: 10 or more miles (16+ km)
Ceiling: 2600 feet AGL
Clouds: overcast cloud deck at 2600 feet AGL
Present Weather: automated observation with no human augmentation;
there may or may not be significant weather present at this time
KPZQ 050715Z AUTO 29013G18KT 10SM OVC026 M02/M06 A2974 RMK AO2 T10161058

Conditions at: KPZQ observed 05 December 2019  06:55 UTC
Temperature: -1.5°C (29°F)
Dewpoint: -6.0°C (21°F) [RH = 71%]
Pressure (altimeter): 29.73 inches Hg (1006.9 mb)
Winds: from the WNW (290 degrees) at 15 MPH (13 knots; 6.8 m/s)
gusting to 25 MPH (22 knots; 11.4 m/s)
Visibility: 10 or more miles (16+ km)
Ceiling: 2700 feet AGL
Clouds: broken clouds at 2700 feet AGL
overcast cloud deck at 3300 feet AGL
Present Weather: automated observation with no human augmentation;
there may or may not be significant weather present at this time
KPZQ 050655Z AUTO 29013G22KT 10SM BKN027 OVC033 M01/M06 A2973 RMK AO2 T10151060

Conditions at: KPZQ observed 05 December 2019  06:36 UTC
Temperature: -1.5°C (29°F)
Dewpoint: -6.2°C (21°F) [RH = 70%]
Pressure (altimeter): 29.72 inches Hg (1006.5 mb)
Winds: from the WNW (290 degrees) at 10 MPH (9 knots; 4.7 m/s)
gusting to 21 MPH (18 knots; 9.4 m/s)
Visibility: 10 or more miles (16+ km)
Ceiling: 3000 feet AGL
Clouds: overcast cloud deck at 3000 feet AGL
Present Weather: automated observation with no human augmentation;
there may or may not be significant weather present at this time
KPZQ 050636Z AUTO 29009G18KT 10SM OVC030 M01/M06 A2972 RMK AO2 T10151062

Conditions at: KPZQ observed 05 December 2019  06:35 UTC
Temperature: -1.5°C (29°F)
Dewpoint: -6.3°C (21°F) [RH = 70%]
Pressure (altimeter): 29.72 inches Hg (1006.5 mb)
Winds: from the W (280 degrees) at 12 MPH (10 knots; 5.2 m/s)
gusting to 21 MPH (18 knots; 9.4 m/s)
Visibility: 10 or more miles (16+ km)
Ceiling: 3000 feet AGL
Clouds: overcast cloud deck at 3000 feet AGL
Present Weather: automated observation with no human augmentation;
there may or may not be significant weather present at this time
KPZQ 050635Z AUTO 28010G18KT 10SM OVC030 M01/M06 A2972 RMK AO2 T10151063

Conditions at: KPZQ observed 05 December 2019  06:15 UTC
Temperature: -1.3°C (30°F)
Dewpoint: -6.5°C (20°F) [RH = 68%]
Pressure (altimeter): 29.71 inches Hg (1006.2 mb)
Winds: from the WNW (290 degrees) at 16 MPH (14 knots; 7.3 m/s)
gusting to 26 MPH (23 knots; 12.0 m/s)
Visibility: 10 or more miles (16+ km)
Ceiling: 3000 feet AGL
Clouds: overcast cloud deck at 3000 feet AGL
Present Weather: automated observation with no human augmentation;
there may or may not be significant weather present at this time
KPZQ 050615Z AUTO 29014G23KT 10SM OVC030 M01/M06 A2971 RMK AO2 T10131065

Conditions at: KPZQ observed 05 December 2019  05:56 UTC
Temperature: -1.3°C (30°F)
Dewpoint: -6.1°C (21°F) [RH = 70%]
Pressure (altimeter): 29.70 inches Hg (1005.8 mb)
Winds: from the WNW (290 degrees) at 13 MPH (11 knots; 5.7 m/s)
gusting to 22 MPH (19 knots; 9.9 m/s)
Visibility: 10 or more miles (16+ km)
Ceiling: 2800 feet AGL
Clouds: overcast cloud deck at 2800 feet AGL
Present Weather: automated observation with no human augmentation;
there may or may not be significant weather present at this time
KPZQ 050556Z AUTO 29011G19KT 10SM OVC028 M01/M06 A2970 RMK AO2 T10131061 11005 21018

Conditions at: KPZQ observed 05 December 2019  05:55 UTC
Temperature: -1.3°C (30°F)
Dewpoint: -6.1°C (21°F) [RH = 70%]
Pressure (altimeter): 29.70 inches Hg (1005.8 mb)
Winds: from the WNW (290 degrees) at 12 MPH (10 knots; 5.2 m/s)
gusting to 22 MPH (19 knots; 9.9 m/s)
Visibility: 10 or more miles (16+ km)
Ceiling: 2800 feet AGL
Clouds: overcast cloud deck at 2800 feet AGL
Present Weather: automated observation with no human augmentation;
there may or may not be significant weather present at this time
KPZQ 050555Z AUTO 29010G19KT 10SM OVC028 M01/M06 A2970 RMK AO2 T10131061 11005 21018

Conditions at: KPZQ observed 05 December 2019  05:35 UTC
Temperature: -1.3°C (30°F)
Dewpoint: -6.1°C (21°F) [RH = 70%]
Pressure (altimeter): 29.69 inches Hg (1005.5 mb)
Winds: from the W (280 degrees) at 13 MPH (11 knots; 5.7 m/s)
gusting to 21 MPH (18 knots; 9.4 m/s)
Visibility: 10 or more miles (16+ km)
Ceiling: 2600 feet AGL
Clouds: overcast cloud deck at 2600 feet AGL
Present Weather: automated observation with no human augmentation;
there may or may not be significant weather present at this time
KPZQ 050535Z AUTO 28011G18KT 10SM OVC026 M01/M06 A2969 RMK AO2 T10131061

Conditions at: KPZQ observed 05 December 2019  05:15 UTC
Temperature: -1.2°C (30°F)
Dewpoint: -6.0°C (21°F) [RH = 70%]
Pressure (altimeter): 29.68 inches Hg (1005.2 mb)
Winds: from the WNW (290 degrees) at 14 MPH (12 knots; 6.2 m/s)
gusting to 22 MPH (19 knots; 9.9 m/s)
Visibility: 10 or more miles (16+ km)
Ceiling: 3800 feet AGL
Clouds: scattered clouds at 2600 feet AGL
overcast cloud deck at 3800 feet AGL
Present Weather: automated observation with no human augmentation;
there may or may not be significant weather present at this time
KPZQ 050515Z AUTO 29012G19KT 10SM SCT026 OVC038 M01/M06 A2968 RMK AO2 T10121060

Conditions at: KPZQ observed 05 December 2019  04:55 UTC
Temperature: -1.2°C (30°F)
Dewpoint: -5.8°C (22°F) [RH = 71%]
Pressure (altimeter): 29.68 inches Hg (1005.2 mb)
Winds: from the W (280 degrees) at 12 MPH (10 knots; 5.2 m/s)
gusting to 18 MPH (16 knots; 8.3 m/s)
Visibility: 10 or more miles (16+ km)
Ceiling: 3600 feet AGL
Clouds: scattered clouds at 2900 feet AGL
overcast cloud deck at 3600 feet AGL
Present Weather: automated observation with no human augmentation;
there may or may not be significant weather present at this time
KPZQ 050455Z AUTO 28010G16KT 10SM SCT029 OVC036 M01/M06 A2968 RMK AO2 T10121058

Conditions at: KPZQ observed 05 December 2019  04:36 UTC
Temperature: -1.3°C (30°F)
Dewpoint: -6.0°C (21°F) [RH = 70%]
Pressure (altimeter): 29.66 inches Hg (1004.5 mb)
Winds: from the W (280 degrees) at 10 MPH (9 knots; 4.7 m/s)
gusting to 20 MPH (17 knots; 8.8 m/s)
Visibility: 10 or more miles (16+ km)
Ceiling: 3000 feet AGL
Clouds: broken clouds at 3000 feet AGL
overcast cloud deck at 3900 feet AGL
Present Weather: automated observation with no human augmentation;
there may or may not be significant weather present at this time
KPZQ 050436Z AUTO 28009G17KT 10SM BKN030 OVC039 M01/M06 A2966 RMK AO2 T10131060

Conditions at: KPZQ observed 05 December 2019  04:35 UTC
Temperature: -1.3°C (30°F)
Dewpoint: -6.0°C (21°F) [RH = 70%]
Pressure (altimeter): 29.66 inches Hg (1004.5 mb)
Winds: from the W (280 degrees) at 12 MPH (10 knots; 5.2 m/s)
gusting to 20 MPH (17 knots; 8.8 m/s)
Visibility: 10 or more miles (16+ km)
Ceiling: 3000 feet AGL
Clouds: broken clouds at 3000 feet AGL
overcast cloud deck at 3900 feet AGL
Present Weather: automated observation with no human augmentation;
there may or may not be significant weather present at this time
KPZQ 050435Z AUTO 28010G17KT 10SM BKN030 OVC039 M01/M06 A2966 RMK AO2 T10131060

Conditions at: KPZQ observed 05 December 2019  04:15 UTC
Temperature: -1.3°C (30°F)
Dewpoint: -6.1°C (21°F) [RH = 70%]
Pressure (altimeter): 29.66 inches Hg (1004.5 mb)
Winds: from the W (280 degrees) at 8 MPH (7 knots; 3.6 m/s)
Visibility: 10 or more miles (16+ km)
Ceiling: 2900 feet AGL
Clouds: broken clouds at 2900 feet AGL
broken clouds at 5000 feet AGL
overcast cloud deck at 6000 feet AGL
Present Weather: automated observation with no human augmentation;
there may or may not be significant weather present at this time
KPZQ 050415Z AUTO 28007KT 10SM BKN029 BKN050 OVC060 M01/M06 A2966 RMK AO2 T10131061

Conditions at: KPZQ observed 05 December 2019  03:55 UTC
Temperature: -1.5°C (29°F)
Dewpoint: -6.3°C (21°F) [RH = 70%]
Pressure (altimeter): 29.65 inches Hg (1004.1 mb)
Winds: from the W (280 degrees) at 13 MPH (11 knots; 5.7 m/s)
gusting to 20 MPH (17 knots; 8.8 m/s)
Visibility: 10 or more miles (16+ km)
Ceiling: 6000 feet AGL
Clouds: scattered clouds at 2900 feet AGL
overcast cloud deck at 6000 feet AGL
Present Weather: automated observation with no human augmentation;
there may or may not be significant weather present at this time
KPZQ 050355Z AUTO 28011G17KT 10SM SCT029 OVC060 M01/M06 A2965 RMK AO2 T10151063 400101018

Conditions at: KPZQ observed 05 December 2019  03:36 UTC
Temperature: -1.5°C (29°F)
Dewpoint: -6.1°C (21°F) [RH = 71%]
Pressure (altimeter): 29.64 inches Hg (1003.8 mb)
Winds: from the WNW (300 degrees) at 10 MPH (9 knots; 4.7 m/s)
gusting to 17 MPH (15 knots; 7.8 m/s)
Visibility: 10 or more miles (16+ km)
Ceiling: 6000 feet AGL
Clouds: scattered clouds at 2900 feet AGL
scattered clouds at 4700 feet AGL
broken clouds at 6000 feet AGL
Present Weather: automated observation with no human augmentation;
there may or may not be significant weather present at this time
KPZQ 050336Z AUTO 30009G15KT 10SM SCT029 SCT047 BKN060 M01/M06 A2964 RMK AO2 T10151061

Conditions at: KPZQ observed 05 December 2019  03:35 UTC
Temperature: -1.5°C (29°F)
Dewpoint: -6.1°C (21°F) [RH = 71%]
Pressure (altimeter): 29.64 inches Hg (1003.8 mb)
Winds: from the WNW (300 degrees) at 9 MPH (8 knots; 4.2 m/s)
Visibility: 10 or more miles (16+ km)
Ceiling: 6000 feet AGL
Clouds: scattered clouds at 2900 feet AGL
scattered clouds at 3400 feet AGL
broken clouds at 6000 feet AGL
Present Weather: automated observation with no human augmentation;
there may or may not be significant weather present at this time
KPZQ 050335Z AUTO 30008KT 10SM SCT029 SCT034 BKN060 M01/M06 A2964 RMK AO2 T10151061

Conditions at: KPZQ observed 05 December 2019  03:16 UTC
Temperature: -1.5°C (29°F)
Dewpoint: -6.0°C (21°F) [RH = 71%]
Pressure (altimeter): 29.64 inches Hg (1003.8 mb)
Winds: from the WNW (300 degrees) at 10 MPH (9 knots; 4.7 m/s)
gusting to 16 MPH (14 knots; 7.3 m/s)
Visibility: 10 or more miles (16+ km)
Ceiling: at least 12,000 feet AGL
Clouds: scattered clouds at 3100 feet AGL
scattered clouds at 4600 feet AGL
Present Weather: automated observation with no human augmentation;
there may or may not be significant weather present at this time
KPZQ 050316Z AUTO 30009G14KT 10SM SCT031 SCT046 M01/M06 A2964 RMK AO2 T10151060

Conditions at: KPZQ observed 05 December 2019  03:15 UTC
Temperature: -1.5°C (29°F)
Dewpoint: -6.0°C (21°F) [RH = 71%]
Pressure (altimeter): 29.64 inches Hg (1003.8 mb)
Winds: from the WNW (290 degrees) at 10 MPH (9 knots; 4.7 m/s)
gusting to 16 MPH (14 knots; 7.3 m/s)
Visibility: 10 or more miles (16+ km)
Ceiling: at least 12,000 feet AGL
Clouds: scattered clouds at 3100 feet AGL
scattered clouds at 4600 feet AGL
Present Weather: automated observation with no human augmentation;
there may or may not be significant weather present at this time
KPZQ 050315Z AUTO 29009G14KT 10SM SCT031 SCT046 M01/M06 A2964 RMK AO2 T10151060

Conditions at: KPZQ observed 05 December 2019  02:56 UTC
Temperature: -1.7°C (29°F)
Dewpoint: -6.0°C (21°F) [RH = 72%]
Pressure (altimeter): 29.63 inches Hg (1003.5 mb)
Winds: from the WNW (290 degrees) at 8 MPH (7 knots; 3.6 m/s)
Visibility: 10 or more miles (16+ km)
Ceiling: at least 12,000 feet AGL
Clouds: scattered clouds at 6500 feet AGL
Present Weather: automated observation with no human augmentation;
there may or may not be significant weather present at this time
KPZQ 050256Z AUTO 29007KT 260V320 10SM SCT065 M02/M06 A2963 RMK AO2 T10171060

Conditions at: KPZQ observed 05 December 2019  02:55 UTC
Temperature: -1.7°C (29°F)
Dewpoint: -6.0°C (21°F) [RH = 72%]
Pressure (altimeter): 29.63 inches Hg (1003.5 mb)
Winds: from the W (280 degrees) at 8 MPH (7 knots; 3.6 m/s)
Visibility: 10 or more miles (16+ km)
Ceiling: at least 12,000 feet AGL
Clouds: scattered clouds at 6500 feet AGL
Present Weather: automated observation with no human augmentation;
there may or may not be significant weather present at this time
KPZQ 050255Z AUTO 28007KT 10SM SCT065 M02/M06 A2963 RMK AO2 T10171060

Conditions at: KPZQ observed 05 December 2019  02:35 UTC
Temperature: -1.3°C (30°F)
Dewpoint: -6.0°C (21°F) [RH = 70%]
Pressure (altimeter): 29.62 inches Hg (1003.1 mb)
Winds: from the WNW (290 degrees) at 10 MPH (9 knots; 4.7 m/s)
gusting to 16 MPH (14 knots; 7.3 m/s)
Visibility: 10 or more miles (16+ km)
Ceiling: 6500 feet AGL
Clouds: broken clouds at 6500 feet AGL
Present Weather: automated observation with no human augmentation;
there may or may not be significant weather present at this time
KPZQ 050235Z AUTO 29009G14KT 10SM BKN065 M01/M06 A2962 RMK AO2 T10131060

Conditions at: KPZQ observed 05 December 2019  02:16 UTC
Temperature: -1.0°C (30°F)
Dewpoint: -5.6°C (22°F) [RH = 71%]
Pressure (altimeter): 29.62 inches Hg (1003.1 mb)
Winds: from the W (280 degrees) at 10 MPH (9 knots; 4.7 m/s)
Visibility: 10 or more miles (16+ km)
Ceiling: 5500 feet AGL
Clouds: overcast cloud deck at 5500 feet AGL
Present Weather: automated observation with no human augmentation;
there may or may not be significant weather present at this time
KPZQ 050216Z AUTO 28009KT 10SM OVC055 M01/M06 A2962 RMK AO2 T10101056

Conditions at: KPZQ observed 05 December 2019  02:15 UTC
Temperature: -1.0°C (30°F)
Dewpoint: -5.6°C (22°F) [RH = 71%]
Pressure (altimeter): 29.62 inches Hg (1003.1 mb)
Winds: from the WNW (290 degrees) at 10 MPH (9 knots; 4.7 m/s)
Visibility: 10 or more miles (16+ km)
Ceiling: 5500 feet AGL
Clouds: overcast cloud deck at 5500 feet AGL
Present Weather: automated observation with no human augmentation;
there may or may not be significant weather present at this time
KPZQ 050215Z AUTO 29009KT 10SM OVC055 M01/M06 A2962 RMK AO2 T10101056

Conditions at: KPZQ observed 05 December 2019  01:56 UTC
Temperature: -0.7°C (31°F)
Dewpoint: -5.3°C (22°F) [RH = 71%]
Pressure (altimeter): 29.62 inches Hg (1003.1 mb)
Winds: from the WNW (290 degrees) at 12 MPH (10 knots; 5.2 m/s)
gusting to 18 MPH (16 knots; 8.3 m/s)
Visibility: 10 or more miles (16+ km)
Ceiling: 5500 feet AGL
Clouds: scattered clouds at 2600 feet AGL
scattered clouds at 5000 feet AGL
overcast cloud deck at 5500 feet AGL
Present Weather: automated observation with no human augmentation;
there may or may not be significant weather present at this time
KPZQ 050156Z AUTO 29010G16KT 10SM SCT026 SCT050 OVC055 M01/M05 A2962 RMK AO2 T10071053

Conditions at: KPZQ observed 05 December 2019  01:55 UTC
Temperature: -0.7°C (31°F)
Dewpoint: -5.3°C (22°F) [RH = 71%]
Pressure (altimeter): 29.62 inches Hg (1003.1 mb)
Winds: from the WNW (290 degrees) at 9 MPH (8 knots; 4.2 m/s)
gusting to 18 MPH (16 knots; 8.3 m/s)
Visibility: 10 or more miles (16+ km)
Ceiling: 5500 feet AGL
Clouds: scattered clouds at 2600 feet AGL
scattered clouds at 3500 feet AGL
overcast cloud deck at 5500 feet AGL
Present Weather: automated observation with no human augmentation;
there may or may not be significant weather present at this time
KPZQ 050155Z AUTO 29008G16KT 10SM SCT026 SCT035 OVC055 M01/M05 A2962 RMK AO2 T10071053

Conditions at: KPZQ observed 05 December 2019  01:35 UTC
Temperature: -0.6°C (31°F)
Dewpoint: -5.1°C (23°F) [RH = 72%]
Pressure (altimeter): 29.61 inches Hg (1002.8 mb)
Winds: from the WNW (290 degrees) at 14 MPH (12 knots; 6.2 m/s)
gusting to 17 MPH (15 knots; 7.8 m/s)
Visibility: 10 or more miles (16+ km)
Ceiling: 2600 feet AGL
Clouds: broken clouds at 2600 feet AGL
overcast cloud deck at 3500 feet AGL
Present Weather: automated observation with no human augmentation;
there may or may not be significant weather present at this time
KPZQ 050135Z AUTO 29012G15KT 10SM BKN026 OVC035 M01/M05 A2961 RMK AO2 T10061051

Conditions at: KPZQ observed 05 December 2019  01:15 UTC
Temperature: -0.6°C (31°F)
Dewpoint: -5.0°C (23°F) [RH = 72%]
Pressure (altimeter): 29.61 inches Hg (1002.8 mb)
Winds: from the WNW (300 degrees) at 8 MPH (7 knots; 3.6 m/s)
gusting to 22 MPH (19 knots; 9.9 m/s)
Visibility: 10 or more miles (16+ km)
Ceiling: 2900 feet AGL
Clouds: scattered clouds at 2400 feet AGL
broken clouds at 2900 feet AGL
overcast cloud deck at 4600 feet AGL
Present Weather: -SN  (light snow)
KPZQ 050115Z AUTO 30007G19KT 10SM -SN SCT024 BKN029 OVC046 M01/M05 A2961 RMK AO2 T10061050

Conditions at: KPZQ observed 05 December 2019  00:56 UTC
Temperature: -0.6°C (31°F)
Dewpoint: -5.3°C (22°F) [RH = 70%]
Pressure (altimeter): 29.60 inches Hg (1002.5 mb)
Winds: from the WNW (300 degrees) at 10 MPH (9 knots; 4.7 m/s)
gusting to 18 MPH (16 knots; 8.3 m/s)
Visibility: 10 or more miles (16+ km)
Ceiling: 4300 feet AGL
Clouds: scattered clouds at 2500 feet AGL
broken clouds at 4300 feet AGL
overcast cloud deck at 4900 feet AGL
Present Weather: automated observation with no human augmentation;
there may or may not be significant weather present at this time
KPZQ 050056Z AUTO 30009G16KT 10SM SCT025 BKN043 OVC049 M01/M05 A2960 RMK AO2 T10061053

Conditions at: KPZQ observed 05 December 2019  00:55 UTC
Temperature: -0.6°C (31°F)
Dewpoint: -5.3°C (22°F) [RH = 70%]
Pressure (altimeter): 29.60 inches Hg (1002.5 mb)
Winds: from the WNW (300 degrees) at 10 MPH (9 knots; 4.7 m/s)
gusting to 18 MPH (16 knots; 8.3 m/s)
Visibility: 10 or more miles (16+ km)
Ceiling: 4300 feet AGL
Clouds: scattered clouds at 2500 feet AGL
broken clouds at 4300 feet AGL
overcast cloud deck at 4900 feet AGL
Present Weather: automated observation with no human augmentation;
there may or may not be significant weather present at this time
KPZQ 050055Z AUTO 30009G16KT 10SM SCT025 BKN043 OVC049 M01/M05 A2960 RMK AO2 T10061053

Conditions at: KPZQ observed 05 December 2019  00:36 UTC
Temperature: -0.5°C (31°F)
Dewpoint: -5.5°C (22°F) [RH = 69%]
Pressure (altimeter): 29.59 inches Hg (1002.1 mb)
Winds: from the WNW (300 degrees) at 10 MPH (9 knots; 4.7 m/s)
gusting to 22 MPH (19 knots; 9.9 m/s)
Visibility: 10 or more miles (16+ km)
Ceiling: 4900 feet AGL
Clouds: scattered clouds at 2700 feet AGL
scattered clouds at 3900 feet AGL
overcast cloud deck at 4900 feet AGL
Present Weather: automated observation with no human augmentation;
there may or may not be significant weather present at this time
KPZQ 050036Z AUTO 30009G19KT 10SM SCT027 SCT039 OVC049 00/M05 A2959 RMK AO2 T10051055

Conditions at: KPZQ observed 05 December 2019  00:35 UTC
Temperature: -0.5°C (31°F)
Dewpoint: -5.5°C (22°F) [RH = 69%]
Pressure (altimeter): 29.59 inches Hg (1002.1 mb)
Winds: from the WNW (300 degrees) at 12 MPH (10 knots; 5.2 m/s)
gusting to 22 MPH (19 knots; 9.9 m/s)
Visibility: 10 or more miles (16+ km)
Ceiling: 4900 feet AGL
Clouds: scattered clouds at 2700 feet AGL
broken clouds at 4900 feet AGL
overcast cloud deck at 5500 feet AGL
Present Weather: automated observation with no human augmentation;
there may or may not be significant weather present at this time
KPZQ 050035Z AUTO 30010G19KT 10SM SCT027 BKN049 OVC055 00/M05 A2959 RMK AO2 T10051055

Conditions at: KPZQ observed 05 December 2019  00:16 UTC
Temperature: -0.5°C (31°F)
Dewpoint: -5.7°C (22°F) [RH = 68%]
Pressure (altimeter): 29.59 inches Hg (1002.1 mb)
Winds: from the WNW (290 degrees) at 10 MPH (9 knots; 4.7 m/s)
gusting to 21 MPH (18 knots; 9.4 m/s)
Visibility: 10 or more miles (16+ km)
Ceiling: 3900 feet AGL
Clouds: scattered clouds at 3000 feet AGL
broken clouds at 3900 feet AGL
overcast cloud deck at 5000 feet AGL
Present Weather: automated observation with no human augmentation;
there may or may not be significant weather present at this time
KPZQ 050016Z AUTO 29009G18KT 240V310 10SM SCT030 BKN039 OVC050 00/M06 A2959 RMK AO2 T10051057

Conditions at: KPZQ observed 05 December 2019  00:15 UTC
Temperature: -0.5°C (31°F)
Dewpoint: -5.8°C (22°F) [RH = 67%]
Pressure (altimeter): 29.59 inches Hg (1002.1 mb)
Winds: from the WNW (290 degrees) at 9 MPH (8 knots; 4.2 m/s)
gusting to 21 MPH (18 knots; 9.4 m/s)
Visibility: 10 or more miles (16+ km)
Ceiling: 4500 feet AGL
Clouds: scattered clouds at 3000 feet AGL
broken clouds at 4500 feet AGL
overcast cloud deck at 5000 feet AGL
Present Weather: automated observation with no human augmentation;
there may or may not be significant weather present at this time
KPZQ 050015Z AUTO 29008G18KT 10SM SCT030 BKN045 OVC050 00/M06 A2959 RMK AO2 T10051058

Conditions at: KPZQ observed 04 December 2019  23:56 UTC
Temperature: -0.5°C (31°F)
Dewpoint: -5.7°C (22°F) [RH = 68%]
Pressure (altimeter): 29.58 inches Hg (1001.8 mb)
Winds: from the WNW (290 degrees) at 14 MPH (12 knots; 6.2 m/s)
gusting to 22 MPH (19 knots; 9.9 m/s)
Visibility: 10 or more miles (16+ km)
Ceiling: 5000 feet AGL
Clouds: scattered clouds at 3000 feet AGL
scattered clouds at 4000 feet AGL
overcast cloud deck at 5000 feet AGL
Present Weather: automated observation with no human augmentation;
there may or may not be significant weather present at this time
KPZQ 042356Z AUTO 29012G19KT 10SM SCT030 SCT040 OVC050 00/M06 A2958 RMK AO2 T10051057 10008 21006

Conditions at: KPZQ observed 04 December 2019  23:55 UTC
Temperature: -0.5°C (31°F)
Dewpoint: -5.7°C (22°F) [RH = 68%]
Pressure (altimeter): 29.58 inches Hg (1001.8 mb)
Winds: from the WNW (290 degrees) at 14 MPH (12 knots; 6.2 m/s)
gusting to 22 MPH (19 knots; 9.9 m/s)
Visibility: 10 or more miles (16+ km)
Ceiling: 5000 feet AGL
Clouds: scattered clouds at 2800 feet AGL
scattered clouds at 4000 feet AGL
overcast cloud deck at 5000 feet AGL
Present Weather: automated observation with no human augmentation;
there may or may not be significant weather present at this time
KPZQ 042355Z AUTO 29012G19KT 10SM SCT028 SCT040 OVC050 00/M06 A2958 RMK AO2 T10051057 10008 21006

Conditions at: KPZQ observed 04 December 2019  23:35 UTC
Temperature: -0.5°C (31°F)
Dewpoint: -5.2°C (23°F) [RH = 70%]
Pressure (altimeter): 29.57 inches Hg (1001.4 mb)
Winds: from the WNW (290 degrees) at 14 MPH (12 knots; 6.2 m/s)
gusting to 24 MPH (21 knots; 10.9 m/s)
Visibility: 10 or more miles (16+ km)
Ceiling: 5000 feet AGL
Clouds: scattered clouds at 2700 feet AGL
scattered clouds at 3400 feet AGL
overcast cloud deck at 5000 feet AGL
Present Weather: automated observation with no human augmentation;
there may or may not be significant weather present at this time
KPZQ 042335Z AUTO 29012G21KT 10SM SCT027 SCT034 OVC050 00/M05 A2957 RMK AO2 T10051052

Conditions at: KPZQ observed 04 December 2019  23:16 UTC
Temperature: -0.6°C (31°F)
Dewpoint: -4.8°C (23°F) [RH = 73%]
Pressure (altimeter): 29.57 inches Hg (1001.4 mb)
Winds: from the WNW (300 degrees) at 17 MPH (15 knots; 7.8 m/s)
gusting to 24 MPH (21 knots; 10.9 m/s)
Visibility: 10 or more miles (16+ km)
Ceiling: 5000 feet AGL
Clouds: overcast cloud deck at 5000 feet AGL
Present Weather: automated observation with no human augmentation;
there may or may not be significant weather present at this time
KPZQ 042316Z AUTO 30015G21KT 10SM OVC050 M01/M05 A2957 RMK AO2 T10061048

Conditions at: KPZQ observed 04 December 2019  23:15 UTC
Temperature: -0.6°C (31°F)
Dewpoint: -4.8°C (23°F) [RH = 73%]
Pressure (altimeter): 29.57 inches Hg (1001.4 mb)
Winds: from the WNW (300 degrees) at 13 MPH (11 knots; 5.7 m/s)
gusting to 20 MPH (17 knots; 8.8 m/s)
Visibility: 10 or more miles (16+ km)
Ceiling: 5000 feet AGL
Clouds: overcast cloud deck at 5000 feet AGL
Present Weather: automated observation with no human augmentation;
there may or may not be significant weather present at this time
KPZQ 042315Z AUTO 30011G17KT 10SM OVC050 M01/M05 A2957 RMK AO2 T10061048

Conditions at: KPZQ observed 04 December 2019  22:56 UTC
Temperature: -0.5°C (31°F)
Dewpoint: -4.6°C (24°F) [RH = 74%]
Pressure (altimeter): 29.56 inches Hg (1001.1 mb)
Winds: from the WNW (290 degrees) at 14 MPH (12 knots; 6.2 m/s)
gusting to 23 MPH (20 knots; 10.4 m/s)
Visibility: 10 or more miles (16+ km)
Ceiling: 4800 feet AGL
Clouds: scattered clouds at 2400 feet AGL
overcast cloud deck at 4800 feet AGL
Present Weather: -SN  (light snow)
KPZQ 042256Z AUTO 29012G20KT 10SM -SN SCT024 OVC048 00/M05 A2956 RMK AO2 T10051046

Conditions at: KPZQ observed 04 December 2019  22:55 UTC
Temperature: -0.5°C (31°F)
Dewpoint: -4.6°C (24°F) [RH = 74%]
Pressure (altimeter): 29.56 inches Hg (1001.1 mb)
Winds: from the WNW (290 degrees) at 16 MPH (14 knots; 7.3 m/s)
gusting to 23 MPH (20 knots; 10.4 m/s)
Visibility: 10 or more miles (16+ km)
Ceiling: 4800 feet AGL
Clouds: scattered clouds at 2400 feet AGL
overcast cloud deck at 4800 feet AGL
Present Weather: -SN  (light snow)
KPZQ 042255Z AUTO 29014G20KT 10SM -SN SCT024 OVC048 00/M05 A2956 RMK AO2 T10051046

Conditions at: KPZQ observed 04 December 2019  22:35 UTC
Temperature: -0.3°C (31°F)
Dewpoint: -4.9°C (23°F) [RH = 71%]
Pressure (altimeter): 29.55 inches Hg (1000.8 mb)
Winds: from the WNW (290 degrees) at 13 MPH (11 knots; 5.7 m/s)
gusting to 20 MPH (17 knots; 8.8 m/s)
Visibility: 10 or more miles (16+ km)
Ceiling: 5000 feet AGL
Clouds: scattered clouds at 2900 feet AGL
overcast cloud deck at 5000 feet AGL
Present Weather: -SN  (light snow)
KPZQ 042235Z AUTO 29011G17KT 10SM -SN SCT029 OVC050 00/M05 A2955 RMK AO2 T10031049

Conditions at: KPZQ observed 04 December 2019  22:16 UTC
Temperature: -0.2°C (32°F)
Dewpoint: -4.9°C (23°F) [RH = 71%]
Pressure (altimeter): 29.54 inches Hg (1000.4 mb)
Winds: from the WNW (290 degrees) at 12 MPH (10 knots; 5.2 m/s)
gusting to 24 MPH (21 knots; 10.9 m/s)
Visibility: 10 or more miles (16+ km)
Ceiling: 2900 feet AGL
Clouds: broken clouds at 2900 feet AGL
broken clouds at 3400 feet AGL
overcast cloud deck at 5000 feet AGL
Present Weather: -SN  (light snow)
KPZQ 042216Z AUTO 29010G21KT 10SM -SN BKN029 BKN034 OVC050 00/M05 A2954 RMK AO2 T10021049

Conditions at: KPZQ observed 04 December 2019  22:15 UTC
Temperature: -0.2°C (32°F)
Dewpoint: -4.9°C (23°F) [RH = 71%]
Pressure (altimeter): 29.54 inches Hg (1000.4 mb)
Winds: from the WNW (290 degrees) at 13 MPH (11 knots; 5.7 m/s)
gusting to 24 MPH (21 knots; 10.9 m/s)
Visibility: 10 or more miles (16+ km)
Ceiling: 2900 feet AGL
Clouds: broken clouds at 2900 feet AGL
broken clouds at 3400 feet AGL
overcast cloud deck at 4200 feet AGL
Present Weather: -SN  (light snow)
KPZQ 042215Z AUTO 29011G21KT 10SM -SN BKN029 BKN034 OVC042 00/M05 A2954 RMK AO2 T10021049

Conditions at: KPZQ observed 04 December 2019  21:55 UTC
Temperature: -0.2°C (32°F)
Dewpoint: -4.5°C (24°F) [RH = 73%]
Pressure (altimeter): 29.53 inches Hg (1000.1 mb)
Winds: from the WNW (290 degrees) at 14 MPH (12 knots; 6.2 m/s)
gusting to 24 MPH (21 knots; 10.9 m/s)
Visibility: 10 or more miles (16+ km)
Ceiling: 4200 feet AGL
Clouds: overcast cloud deck at 4200 feet AGL
Present Weather: -SN  (light snow)
KPZQ 042155Z AUTO 29012G21KT 10SM -SN OVC042 00/M04 A2953 RMK AO2 T10021045

Conditions at: KPZQ observed 04 December 2019  21:35 UTC
Temperature: -0.2°C (32°F)
Dewpoint: -4.0°C (25°F) [RH = 75%]
Pressure (altimeter): 29.52 inches Hg (999.7 mb)
Winds: from the WNW (290 degrees) at 10 MPH (9 knots; 4.7 m/s)
gusting to 16 MPH (14 knots; 7.3 m/s)
Visibility: 5 miles (8 km)
Ceiling: 4000 feet AGL
Clouds: scattered clouds at 2700 feet AGL
overcast cloud deck at 4000 feet AGL
Present Weather: -SN  (light snow)
KPZQ 042135Z AUTO 29009G14KT 5SM -SN SCT027 OVC040 00/M04 A2952 RMK AO2 T10021040

Conditions at: KPZQ observed 04 December 2019  21:16 UTC
Temperature: 0.0°C (32°F)
Dewpoint: -4.5°C (24°F) [RH = 72%]
Pressure (altimeter): 29.50 inches Hg (999.1 mb)
Winds: from the W (280 degrees) at 10 MPH (9 knots; 4.7 m/s)
gusting to 26 MPH (23 knots; 12.0 m/s)
Visibility: 7 miles (11 km)
Ceiling: 2900 feet AGL
Clouds: broken clouds at 2900 feet AGL
overcast cloud deck at 3700 feet AGL
Present Weather: -SN  (light snow)
KPZQ 042116Z AUTO 28009G23KT 7SM -SN BKN029 OVC037 00/M04 A2950 RMK AO2 T00001045

Conditions at: KPZQ observed 04 December 2019  21:15 UTC
Temperature: 0.0°C (32°F)
Dewpoint: -4.5°C (24°F) [RH = 72%]
Pressure (altimeter): 29.50 inches Hg (999.1 mb)
Winds: from the WNW (290 degrees) at 13 MPH (11 knots; 5.7 m/s)
gusting to 26 MPH (23 knots; 12.0 m/s)
Visibility: 7 miles (11 km)
Ceiling: 2900 feet AGL
Clouds: broken clouds at 2900 feet AGL
overcast cloud deck at 3900 feet AGL
Present Weather: -SN  (light snow)
KPZQ 042115Z AUTO 29011G23KT 260V320 7SM -SN BKN029 OVC039 00/M04 A2950 RMK AO2 T00001045

Conditions at: KPZQ observed 04 December 2019  20:55 UTC
Temperature: 0.3°C (33°F)
Dewpoint: -4.9°C (23°F) [RH = 68%]
Pressure (altimeter): 29.49 inches Hg (998.7 mb)
Winds: from the WNW (290 degrees) at 13 MPH (11 knots; 5.7 m/s)
gusting to 30 MPH (26 knots; 13.5 m/s)
Visibility: 10 or more miles (16+ km)
Ceiling: 4700 feet AGL
Clouds: scattered clouds at 3100 feet AGL
broken clouds at 4700 feet AGL
overcast cloud deck at 5500 feet AGL
Present Weather: automated observation with no human augmentation;
there may or may not be significant weather present at this time
KPZQ 042055Z AUTO 29011G26KT 10SM SCT031 BKN047 OVC055 00/M05 A2949 RMK AO2 T00031049

Conditions at: KPZQ observed 04 December 2019  20:36 UTC
Temperature: 0.5°C (33°F)
Dewpoint: -4.6°C (24°F) [RH = 69%]
Pressure (altimeter): 29.48 inches Hg (998.4 mb)
Winds: from the WNW (290 degrees) at 17 MPH (15 knots; 7.8 m/s)
gusting to 24 MPH (21 knots; 10.9 m/s)
Visibility: 10 or more miles (16+ km)
Ceiling: 4900 feet AGL
Clouds: scattered clouds at 2900 feet AGL
scattered clouds at 3900 feet AGL
overcast cloud deck at 4900 feet AGL
Present Weather: automated observation with no human augmentation;
there may or may not be significant weather present at this time
KPZQ 042036Z AUTO 29015G21KT 10SM SCT029 SCT039 OVC049 01/M05 A2948 RMK AO2 T00051046

Conditions at: KPZQ observed 04 December 2019  20:35 UTC
Temperature: 0.5°C (33°F)
Dewpoint: -4.6°C (24°F) [RH = 69%]
Pressure (altimeter): 29.47 inches Hg (998.1 mb)
Winds: from the WNW (290 degrees) at 15 MPH (13 knots; 6.8 m/s)
gusting to 24 MPH (21 knots; 10.9 m/s)
Visibility: 10 or more miles (16+ km)
Ceiling: 4900 feet AGL
Clouds: scattered clouds at 2900 feet AGL
scattered clouds at 3900 feet AGL
overcast cloud deck at 4900 feet AGL
Present Weather: automated observation with no human augmentation;
there may or may not be significant weather present at this time
KPZQ 042035Z AUTO 29013G21KT 10SM SCT029 SCT039 OVC049 01/M05 A2947 RMK AO2 T00051046

Conditions at: KPZQ observed 04 December 2019  20:15 UTC
Temperature: 0.5°C (33°F)
Dewpoint: -4.1°C (25°F) [RH = 71%]
Pressure (altimeter): 29.47 inches Hg (998.1 mb)
Winds: from the WNW (290 degrees) at 16 MPH (14 knots; 7.3 m/s)
gusting to 23 MPH (20 knots; 10.4 m/s)
Visibility: 10 or more miles (16+ km)
Ceiling: 2700 feet AGL
Clouds: broken clouds at 2700 feet AGL
broken clouds at 3900 feet AGL
overcast cloud deck at 4600 feet AGL
Present Weather: automated observation with no human augmentation;
there may or may not be significant weather present at this time
KPZQ 042015Z AUTO 29014G20KT 10SM BKN027 BKN039 OVC046 01/M04 A2947 RMK AO2 T00051041

Conditions at: KPZQ observed 04 December 2019  19:55 UTC
Temperature: 0.6°C (33°F)
Dewpoint: -4.0°C (25°F) [RH = 71%]
Pressure (altimeter): 29.45 inches Hg (997.4 mb)
Winds: from the WNW (300 degrees) at 14 MPH (12 knots; 6.2 m/s)
gusting to 22 MPH (19 knots; 9.9 m/s)
Visibility: 10 or more miles (16+ km)
Ceiling: 4400 feet AGL
Clouds: scattered clouds at 2900 feet AGL
overcast cloud deck at 4400 feet AGL
Present Weather: automated observation with no human augmentation;
there may or may not be significant weather present at this time
KPZQ 041955Z AUTO 30012G19KT 10SM SCT029 OVC044 01/M04 A2945 RMK AO2 T00061040

Conditions at: KPZQ observed 04 December 2019  19:35 UTC
Temperature: 0.6°C (33°F)
Dewpoint: -4.0°C (25°F) [RH = 71%]
Pressure (altimeter): 29.44 inches Hg (997.0 mb)
Winds: from the WNW (290 degrees) at 16 MPH (14 knots; 7.3 m/s)
gusting to 26 MPH (23 knots; 12.0 m/s)
Visibility: 10 or more miles (16+ km)
Ceiling: 3900 feet AGL
Clouds: scattered clouds at 2200 feet AGL
broken clouds at 3900 feet AGL
overcast cloud deck at 4400 feet AGL
Present Weather: automated observation with no human augmentation;
there may or may not be significant weather present at this time
KPZQ 041935Z AUTO 29014G23KT 10SM SCT022 BKN039 OVC044 01/M04 A2944 RMK AO2 T00061040

Conditions at: KPZQ observed 04 December 2019  19:16 UTC
Temperature: 0.5°C (33°F)
Dewpoint: -3.2°C (26°F) [RH = 76%]
Pressure (altimeter): 29.43 inches Hg (996.7 mb)
Winds: from the W (280 degrees) at 12 MPH (10 knots; 5.2 m/s)
gusting to 20 MPH (17 knots; 8.8 m/s)
Visibility: 10 or more miles (16+ km)
Ceiling: 2200 feet AGL
Clouds: broken clouds at 2200 feet AGL
overcast cloud deck at 3300 feet AGL
Present Weather: automated observation with no human augmentation;
there may or may not be significant weather present at this time
KPZQ 041916Z AUTO 28010G17KT 10SM BKN022 OVC033 01/M03 A2943 RMK AO2 T00051032

Conditions at: KPZQ observed 04 December 2019  19:15 UTC
Temperature: 0.6°C (33°F)
Dewpoint: -3.2°C (26°F) [RH = 76%]
Pressure (altimeter): 29.43 inches Hg (996.7 mb)
Winds: from the W (280 degrees) at 10 MPH (9 knots; 4.7 m/s)
gusting to 20 MPH (17 knots; 8.8 m/s)
Visibility: 10 or more miles (16+ km)
Ceiling: 2200 feet AGL
Clouds: broken clouds at 2200 feet AGL
overcast cloud deck at 3300 feet AGL
Present Weather: automated observation with no human augmentation;
there may or may not be significant weather present at this time
KPZQ 041915Z AUTO 28009G17KT 10SM BKN022 OVC033 01/M03 A2943 RMK AO2 T00061032

Conditions at: KPZQ observed 04 December 2019  18:55 UTC
Temperature: 0.6°C (33°F)
Dewpoint: -3.2°C (26°F) [RH = 76%]
Pressure (altimeter): 29.42 inches Hg (996.4 mb)
Winds: from the WNW (290 degrees) at 12 MPH (10 knots; 5.2 m/s)
gusting to 21 MPH (18 knots; 9.4 m/s)
Visibility: 10 or more miles (16+ km)
Ceiling: 3100 feet AGL
Clouds: scattered clouds at 2400 feet AGL
overcast cloud deck at 3100 feet AGL
Present Weather: automated observation with no human augmentation;
there may or may not be significant weather present at this time
KPZQ 041855Z AUTO 29010G18KT 10SM SCT024 OVC031 01/M03 A2942 RMK AO2 T00061032

Conditions at: KPZQ observed 04 December 2019  18:35 UTC
Temperature: 0.6°C (33°F)
Dewpoint: -3.1°C (26°F) [RH = 76%]
Pressure (altimeter): 29.42 inches Hg (996.4 mb)
Winds: from the WNW (290 degrees) at 7 MPH (6 knots; 3.1 m/s)
gusting to 21 MPH (18 knots; 9.4 m/s)
Visibility: 10 or more miles (16+ km)
Ceiling: 3100 feet AGL
Clouds: scattered clouds at 2400 feet AGL
overcast cloud deck at 3100 feet AGL
Present Weather: automated observation with no human augmentation;
there may or may not be significant weather present at this time
KPZQ 041835Z AUTO 29006G18KT 10SM SCT024 OVC031 01/M03 A2942 RMK AO2 T00061031

Conditions at: KPZQ observed 04 December 2019  18:15 UTC
Temperature: 0.7°C (33°F)
Dewpoint: -3.1°C (26°F) [RH = 76%]
Pressure (altimeter): 29.42 inches Hg (996.4 mb)
Winds: from the WNW (290 degrees) at 15 MPH (13 knots; 6.8 m/s)
gusting to 24 MPH (21 knots; 10.9 m/s)
Visibility: 10 or more miles (16+ km)
Ceiling: 2400 feet AGL
Clouds: overcast cloud deck at 2400 feet AGL
Present Weather: automated observation with no human augmentation;
there may or may not be significant weather present at this time
KPZQ 041815Z AUTO 29013G21KT 10SM OVC024 01/M03 A2942 RMK AO2 T00071031

Conditions at: KPZQ observed 04 December 2019  17:55 UTC
Temperature: 0.8°C (33°F)
Dewpoint: -2.7°C (27°F) [RH = 77%]
Pressure (altimeter): 29.41 inches Hg (996.0 mb)
Winds: from the WNW (300 degrees) at 12 MPH (10 knots; 5.2 m/s)
gusting to 22 MPH (19 knots; 9.9 m/s)
Visibility: 10 or more miles (16+ km)
Ceiling: 2200 feet AGL
Clouds: overcast cloud deck at 2200 feet AGL
Present Weather: automated observation with no human augmentation;
there may or may not be significant weather present at this time
KPZQ 041755Z AUTO 30010G19KT 10SM OVC022 01/M03 A2941 RMK AO2 T00081027 10010 21001

Conditions at: KPZQ observed 04 December 2019  17:36 UTC
Temperature: 1.0°C (34°F)
Dewpoint: -2.5°C (28°F) [RH = 77%]
Pressure (altimeter): 29.41 inches Hg (996.0 mb)
Winds: from the WNW (290 degrees) at 10 MPH (9 knots; 4.7 m/s)
gusting to 23 MPH (20 knots; 10.4 m/s)
Visibility: 10 or more miles (16+ km)
Ceiling: 2200 feet AGL
Clouds: overcast cloud deck at 2200 feet AGL
Present Weather: automated observation with no human augmentation;
there may or may not be significant weather present at this time
KPZQ 041736Z AUTO 29009G20KT 10SM OVC022 01/M02 A2941 RMK AO2 T00101025

Conditions at: KPZQ observed 04 December 2019  17:35 UTC
Temperature: 1.0°C (34°F)
Dewpoint: -2.5°C (28°F) [RH = 77%]
Pressure (altimeter): 29.42 inches Hg (996.4 mb)
Winds: from the WNW (300 degrees) at 12 MPH (10 knots; 5.2 m/s)
gusting to 23 MPH (20 knots; 10.4 m/s)
Visibility: 10 or more miles (16+ km)
Ceiling: 2200 feet AGL
Clouds: overcast cloud deck at 2200 feet AGL
Present Weather: automated observation with no human augmentation;
there may or may not be significant weather present at this time
KPZQ 041735Z AUTO 30010G20KT 10SM OVC022 01/M02 A2942 RMK AO2 T00101025

Conditions at: KPZQ observed 04 December 2019  17:16 UTC
Temperature: 0.8°C (33°F)
Dewpoint: -2.2°C (28°F) [RH = 80%]
Pressure (altimeter): 29.41 inches Hg (996.0 mb)
Winds: from the WNW (300 degrees) at 14 MPH (12 knots; 6.2 m/s)
gusting to 20 MPH (17 knots; 8.8 m/s)
Visibility: 10 or more miles (16+ km)
Ceiling: 1800 feet AGL
Clouds: overcast cloud deck at 1800 feet AGL
Present Weather: automated observation with no human augmentation;
there may or may not be significant weather present at this time
KPZQ 041716Z AUTO 30012G17KT 10SM OVC018 01/M02 A2941 RMK AO2 T00081022

Conditions at: KPZQ observed 04 December 2019  17:15 UTC
Temperature: 0.8°C (33°F)
Dewpoint: -2.2°C (28°F) [RH = 80%]
Pressure (altimeter): 29.42 inches Hg (996.4 mb)
Winds: from the WNW (300 degrees) at 13 MPH (11 knots; 5.7 m/s)
gusting to 20 MPH (17 knots; 8.8 m/s)
Visibility: 10 or more miles (16+ km)
Ceiling: 1800 feet AGL
Clouds: overcast cloud deck at 1800 feet AGL
Present Weather: automated observation with no human augmentation;
there may or may not be significant weather present at this time
KPZQ 041715Z AUTO 30011G17KT 10SM OVC018 01/M02 A2942 RMK AO2 T00081022

Conditions at: KPZQ observed 04 December 2019  16:56 UTC
Temperature: 0.7°C (33°F)
Dewpoint: -2.0°C (28°F) [RH = 82%]
Pressure (altimeter): 29.42 inches Hg (996.4 mb)
Winds: from the WNW (290 degrees) at 7 MPH (6 knots; 3.1 m/s)
gusting to 21 MPH (18 knots; 9.4 m/s)
Visibility: 10 or more miles (16+ km)
Ceiling: 1800 feet AGL
Clouds: broken clouds at 1800 feet AGL
overcast cloud deck at 3600 feet AGL
Present Weather: automated observation with no human augmentation;
there may or may not be significant weather present at this time
KPZQ 041656Z AUTO 29006G18KT 10SM BKN018 OVC036 01/M02 A2942 RMK AO2 T00071020

Conditions at: KPZQ observed 04 December 2019  16:55 UTC
Temperature: 0.7°C (33°F)
Dewpoint: -2.0°C (28°F) [RH = 82%]
Pressure (altimeter): 29.42 inches Hg (996.4 mb)
Winds: from the WNW (300 degrees) at 8 MPH (7 knots; 3.6 m/s)
gusting to 21 MPH (18 knots; 9.4 m/s)
Visibility: 10 or more miles (16+ km)
Ceiling: 1800 feet AGL
Clouds: broken clouds at 1800 feet AGL
overcast cloud deck at 3600 feet AGL
Present Weather: automated observation with no human augmentation;
there may or may not be significant weather present at this time
KPZQ 041655Z AUTO 30007G18KT 10SM BKN018 OVC036 01/M02 A2942 RMK AO2 T00071020

Conditions at: KPZQ observed 04 December 2019  16:36 UTC
Temperature: 0.7°C (33°F)
Dewpoint: -2.0°C (28°F) [RH = 82%]
Pressure (altimeter): 29.42 inches Hg (996.4 mb)
Winds: from the WNW (290 degrees) at 13 MPH (11 knots; 5.7 m/s)
gusting to 18 MPH (16 knots; 8.3 m/s)
Visibility: 10 or more miles (16+ km)
Ceiling: 3600 feet AGL
Clouds: scattered clouds at 1600 feet AGL
broken clouds at 3600 feet AGL
overcast cloud deck at 4600 feet AGL
Present Weather: automated observation with no human augmentation;
there may or may not be significant weather present at this time
KPZQ 041636Z AUTO 29011G16KT 10SM SCT016 BKN036 OVC046 01/M02 A2942 RMK AO2 T00071020

Conditions at: KPZQ observed 04 December 2019  16:35 UTC
Temperature: 0.7°C (33°F)
Dewpoint: -2.0°C (28°F) [RH = 82%]
Pressure (altimeter): 29.41 inches Hg (996.0 mb)
Winds: from the WNW (300 degrees) at 12 MPH (10 knots; 5.2 m/s)
gusting to 18 MPH (16 knots; 8.3 m/s)
Visibility: 10 or more miles (16+ km)
Ceiling: 3600 feet AGL
Clouds: scattered clouds at 1600 feet AGL
broken clouds at 3600 feet AGL
overcast cloud deck at 4600 feet AGL
Present Weather: automated observation with no human augmentation;
there may or may not be significant weather present at this time
KPZQ 041635Z AUTO 30010G16KT 10SM SCT016 BKN036 OVC046 01/M02 A2941 RMK AO2 T00071020

Conditions at: KPZQ observed 04 December 2019  16:15 UTC
Temperature: 0.6°C (33°F)
Dewpoint: -1.5°C (29°F) [RH = 86%]
Pressure (altimeter): 29.41 inches Hg (996.0 mb)
Winds: from the WNW (300 degrees) at 15 MPH (13 knots; 6.8 m/s)
gusting to 23 MPH (20 knots; 10.4 m/s)
Visibility: 10 or more miles (16+ km)
Ceiling: 1600 feet AGL
Clouds: scattered clouds at 900 feet AGL
broken clouds at 1600 feet AGL
overcast cloud deck at 2800 feet AGL
Present Weather: automated observation with no human augmentation;
there may or may not be significant weather present at this time
KPZQ 041615Z AUTO 30013G20KT 10SM SCT009 BKN016 OVC028 01/M01 A2941 RMK AO2 T00061015

Conditions at: KPZQ observed 04 December 2019  15:55 UTC
Temperature: 0.5°C (33°F)
Dewpoint: -0.6°C (31°F) [RH = 92%]
Pressure (altimeter): 29.41 inches Hg (996.0 mb)
Winds: from the WNW (290 degrees) at 10 MPH (9 knots; 4.7 m/s)
gusting to 16 MPH (14 knots; 7.3 m/s)
Visibility: 2.50 miles (4.02 km)
Ceiling: 1100 feet AGL
Clouds: broken clouds at 1100 feet AGL
overcast cloud deck at 1600 feet AGL
Present Weather: -SN  (light snow)
KPZQ 041555Z AUTO 29009G14KT 2 1/2SM -SN BKN011 OVC016 01/M01 A2941 RMK AO2 T00051006

Conditions at: KPZQ observed 04 December 2019  15:35 UTC
Temperature: 0.5°C (33°F)
Dewpoint: -0.6°C (31°F) [RH = 92%]
Pressure (altimeter): 29.41 inches Hg (996.0 mb)
Winds: from the WNW (290 degrees) at 8 MPH (7 knots; 3.6 m/s)
Visibility: 5 miles (8 km)
Ceiling: 1100 feet AGL
Clouds: broken clouds at 1100 feet AGL
broken clouds at 1700 feet AGL
overcast cloud deck at 5500 feet AGL
Present Weather: -SN  (light snow)
KPZQ 041535Z AUTO 29007KT 5SM -SN BKN011 BKN017 OVC055 01/M01 A2941 RMK AO2 T00051006

Conditions at: KPZQ observed 04 December 2019  15:15 UTC
Temperature: 0.6°C (33°F)
Dewpoint: -0.7°C (31°F) [RH = 91%]
Pressure (altimeter): 29.40 inches Hg (995.7 mb)
Winds: from the W (280 degrees) at 6 MPH (5 knots; 2.6 m/s)
Visibility: 5 miles (8 km)
Ceiling: 1100 feet AGL
Clouds: broken clouds at 1100 feet AGL
overcast cloud deck at 3900 feet AGL
Present Weather: -SN  (light snow)
KPZQ 041515Z AUTO 28005KT 5SM -SN BKN011 OVC039 01/M01 A2940 RMK AO2 T00061007